Time;durP1;ratioP1;P1;durP2;ratioP2;P2;SDS_P1;SDS_P2;PMS_P1;PMS_P2;Temp;Humidity;BMP_temperature;BMP_pressure;BME280_temperature;BME280_humidity;BME280_pressure;Samples;Min_cycle;Max_cycle;Signal;HPM_P1;HPM_P2
2022/09/11 00:00:44;;;;;;;;;;;;;;;23.14;51.76;101235.03;5121784;27;20006;-37
2022/09/11 00:03:10;;;;;;;;;;;;;;;23.15;51.77;101236.69;5134379;27;19924;-37
2022/09/11 00:05:37;;;;;;;;;;;;;;;23.15;51.73;101231.13;5140135;27;19968;-37
2022/09/11 00:08:03;;;;;;;;;;;;;;;23.15;51.74;101238.66;5121984;27;19971;-37
2022/09/11 00:10:28;;;;;;;;;;;;;;;23.15;51.55;101235.88;5138320;27;19985;-37
2022/09/11 00:12:54;;;;;;;;;;;;;;;23.14;51.72;101228.66;5140614;27;19930;-38
2022/09/11 00:15:19;;;;;;;;;;;;;;;23.15;51.71;101247.00;5138117;27;19923;-37
2022/09/11 00:17:45;;;;;;;;;;;;;;;23.15;51.65;101241.44;5141297;27;19943;-38
2022/09/11 00:20:11;;;;;;;;;;;;;;;23.14;51.71;101251.69;5141452;27;19938;-37
2022/09/11 00:22:36;;;;;;;;;;;;;;;23.13;51.58;101244.50;5138600;27;20319;-37
2022/09/11 00:25:02;;;;;;;;;;;;;;;23.14;51.73;101245.31;5136081;27;19930;-37
2022/09/11 00:27:27;;;;;;;;;;;;;;;23.14;51.74;101248.91;5135901;27;20364;-38
2022/09/11 00:29:53;;;;;;;;;;;;;;;23.14;51.64;101253.66;5141783;27;19923;-38
2022/09/11 00:32:18;;;;;;;;;;;;;;;23.15;51.67;101256.16;5142539;27;19928;-37
2022/09/11 00:34:45;;;;;;;;;;;;;;;23.14;51.56;101248.91;5138783;27;20269;-37
2022/09/11 00:37:11;;;;;;;;;;;;;;;23.14;51.67;101256.44;5135397;27;20006;-38
2022/09/11 00:39:36;;;;;;;;;;;;;;;23.14;51.58;101257.25;5142673;27;19934;-38
2022/09/11 00:42:04;;;;;;;;;;;;;;;23.14;51.66;101254.47;5143629;27;19923;-37
2022/09/11 00:44:32;;;;;;;;;;;;;;;23.14;51.73;101254.47;5137467;27;20002;-37
2022/09/11 00:46:59;;;;;;;;;;;;;;;23.14;51.59;101253.66;5138134;27;20034;-37
2022/09/11 00:49:29;;;;;;;;;;;;;;;23.13;51.57;101258.38;5141686;27;20007;-37
2022/09/11 00:52:12;;;;;;;;;;;;;;;23.14;51.60;101264.75;5135546;27;19973;-37
2022/09/11 00:54:40;;;;;;;;;;;;;;;23.14;51.59;101265.59;5147095;27;19962;-37
2022/09/11 00:57:06;;;;;;;;;;;;;;;23.13;51.64;101269.50;5122293;27;20018;-37
2022/09/11 00:59:31;;;;;;;;;;;;;;;23.13;51.68;101272.28;5142278;27;19946;-37
2022/09/11 01:01:57;;;;;;;;;;;;;;;23.14;51.57;101276.69;5135632;27;19980;-37
2022/09/11 01:04:22;;;;;;;;;;;;;;;23.13;51.66;101277.00;5137572;27;20262;-37
2022/09/11 01:06:50;;;;;;;;;;;;;;;23.13;51.64;101272.28;5136363;27;19933;-37
2022/09/11 01:09:16;;;;;;;;;;;;;;;23.13;51.74;101279.78;5138793;27;20002;-37
2022/09/11 01:11:50;;;;;;;;;;;;;;;23.13;51.80;101275.06;5133949;27;19973;-37
2022/09/11 01:14:36;;;;;;;;;;;;;;;23.12;51.59;101278.97;5137053;27;20032;-37
2022/09/11 01:17:07;;;;;;;;;;;;;;;23.14;51.62;101278.66;5120079;27;20010;-38
2022/09/11 01:19:52;;;;;;;;;;;;;;;23.12;51.73;101287.28;5137054;27;20476;-37
2022/09/11 01:22:37;;;;;;;;;;;;;;;23.13;51.64;101277.81;5125711;27;19962;-37
2022/09/11 01:25:08;;;;;;;;;;;;;;;23.12;51.72;101289.25;5123858;27;20032;-37
2022/09/11 01:27:53;;;;;;;;;;;;;;;23.12;51.83;101287.28;5139949;27;20380;-37
2022/09/11 01:30:21;;;;;;;;;;;;;;;23.14;51.63;101298.09;5117904;27;20338;-37
2022/09/11 01:32:51;;;;;;;;;;;;;;;23.13;51.67;101297.28;5138216;27;20076;-38
2022/09/11 01:35:37;;;;;;;;;;;;;;;23.13;51.79;101302.84;5122377;27;20333;-37
2022/09/11 01:38:05;;;;;;;;;;;;;;;23.13;51.65;101305.59;5122731;27;20018;-38
2022/09/11 01:40:36;;;;;;;;;;;;;;;23.12;51.76;101309.53;5142159;27;20013;-37
2022/09/11 01:43:05;;;;;;;;;;;;;;;23.12;51.76;101303.97;5139210;27;20017;-37
2022/09/11 01:45:31;;;;;;;;;;;;;;;23.11;51.72;101305.09;5141086;27;19982;-38
2022/09/11 01:47:57;;;;;;;;;;;;;;;23.13;51.72;101311.16;5133927;27;19931;-37
2022/09/11 01:50:23;;;;;;;;;;;;;;;23.12;51.60;101306.75;5140682;27;19931;-37
2022/09/11 01:52:50;;;;;;;;;;;;;;;23.12;51.77;101305.91;5137122;27;19954;-37
2022/09/11 01:55:17;;;;;;;;;;;;;;;23.12;51.74;101309.53;5136788;27;19954;-38
2022/09/11 01:57:52;;;;;;;;;;;;;;;23.12;51.74;101308.69;5137246;27;20039;-37
2022/09/11 02:00:17;;;;;;;;;;;;;;;23.11;51.88;101305.09;5120595;27;20567;-37
2022/09/11 02:02:44;;;;;;;;;;;;;;;23.12;51.75;101311.47;5135330;27;19939;-37
2022/09/11 02:05:14;;;;;;;;;;;;;;;23.12;51.71;101309.53;5145415;27;19987;-37
2022/09/11 02:07:42;;;;;;;;;;;;;;;23.12;51.74;101320.63;5117254;27;19958;-38
2022/09/11 02:10:09;;;;;;;;;;;;;;;23.12;51.67;101317.84;5136184;27;19963;-38
2022/09/11 02:12:40;;;;;;;;;;;;;;;23.12;51.73;101323.41;5135876;27;20063;-37
2022/09/11 02:15:07;;;;;;;;;;;;;;;23.12;51.73;101317.84;5134356;27;19955;-37
2022/09/11 02:17:42;;;;;;;;;;;;;;;23.13;51.68;101324.25;5135065;27;19971;-37
2022/09/11 02:20:08;;;;;;;;;;;;;;;23.11;51.69;101324.53;5135349;27;20337;-37
2022/09/11 02:22:35;;;;;;;;;;;;;;;23.12;51.58;101317.03;5136371;27;19924;-37
2022/09/11 02:25:01;;;;;;;;;;;;;;;23.12;51.78;101325.38;5141196;27;19998;-37
2022/09/11 02:27:27;;;;;;;;;;;;;;;23.12;51.70;101325.38;5136765;27;19974;-37
2022/09/11 02:29:53;;;;;;;;;;;;;;;23.11;51.58;101332.06;5136651;27;19923;-37
2022/09/11 02:32:19;;;;;;;;;;;;;;;23.11;51.74;101330.09;5137581;27;20441;-37
2022/09/11 02:34:47;;;;;;;;;;;;;;;23.10;51.70;101331.22;5139288;27;19962;-37
2022/09/11 02:37:33;;;;;;;;;;;;;;;23.12;51.71;101334.53;5117999;27;20019;-38
2022/09/11 02:40:19;;;;;;;;;;;;;;;23.11;51.72;101332.88;5116565;27;20054;-37
2022/09/11 02:43:04;;;;;;;;;;;;;;;23.10;51.75;101339.56;5117722;27;19958;-37
2022/09/11 02:45:53;;;;;;;;;;;;;;;23.10;51.77;101339.56;5117582;27;19992;-38
2022/09/11 02:48:38;;;;;;;;;;;;;;;23.12;51.57;101336.47;5122155;27;19923;-37
2022/09/11 02:51:10;;;;;;;;;;;;;;;23.11;51.69;101334.84;5119965;27;19959;-37
2022/09/11 02:53:41;;;;;;;;;;;;;;;23.10;51.74;101330.38;5115146;27;19955;-37
2022/09/11 02:56:10;;;;;;;;;;;;;;;23.10;51.75;101336.78;5137934;27;19946;-37
2022/09/11 02:58:42;;;;;;;;;;;;;;;23.10;51.67;101333.16;5135385;27;19980;-37
2022/09/11 03:01:08;;;;;;;;;;;;;;;23.10;51.73;101339.56;5118424;27;20019;-38
2022/09/11 03:03:39;;;;;;;;;;;;;;;23.10;51.69;101339.56;5130792;27;19923;-37
2022/09/11 03:06:05;;;;;;;;;;;;;;;23.11;51.66;101340.38;5141101;27;19981;-37
2022/09/11 03:08:31;;;;;;;;;;;;;;;23.11;51.58;101345.94;5134124;27;20419;-37
2022/09/11 03:10:56;;;;;;;;;;;;;;;23.10;51.73;101347.91;5139391;27;20026;-38
2022/09/11 03:13:22;;;;;;;;;;;;;;;23.10;51.76;101347.03;5138530;27;19930;-37
2022/09/11 03:15:47;;;;;;;;;;;;;;;23.10;51.77;101342.34;5137837;27;20297;-37
2022/09/11 03:18:14;;;;;;;;;;;;;;;23.10;51.69;101344.28;5138072;27;19927;-37
2022/09/11 03:20:43;;;;;;;;;;;;;;;23.10;51.61;101347.03;5141762;27;20390;-37
2022/09/11 03:23:09;;;;;;;;;;;;;;;23.10;51.58;101356.22;5141437;27;20031;-37
2022/09/11 03:25:34;;;;;;;;;;;;;;;23.10;51.59;101360.94;5143967;27;20027;-37
2022/09/11 03:28:00;;;;;;;;;;;;;;;23.10;51.75;101358.16;5141016;27;19954;-38
2022/09/11 03:30:26;;;;;;;;;;;;;;;23.09;51.78;101357.34;5138066;27;19924;-37
2022/09/11 03:32:53;;;;;;;;;;;;;;;23.10;51.87;101363.72;5123941;27;20389;-37
2022/09/11 03:35:19;;;;;;;;;;;;;;;23.10;51.82;101360.94;5138963;27;19975;-37
2022/09/11 03:37:45;;;;;;;;;;;;;;;23.10;51.77;101367.34;5136517;27;19971;-38
2022/09/11 03:40:11;;;;;;;;;;;;;;;23.10;51.66;101369.28;5144199;27;20006;-37
2022/09/11 03:42:37;;;;;;;;;;;;;;;23.10;51.68;101361.78;5123554;27;20235;-37
2022/09/11 03:45:02;;;;;;;;;;;;;;;23.08;51.60;101372.34;5136663;27;20354;-37
2022/09/11 03:47:28;;;;;;;;;;;;;;;23.10;51.69;101369.28;5135857;27;19923;-37
2022/09/11 03:49:54;;;;;;;;;;;;;;;23.10;51.61;101367.34;5120194;27;19942;-37
2022/09/11 03:52:21;;;;;;;;;;;;;;;23.10;51.61;101364.56;5138476;27;20017;-37
2022/09/11 03:54:47;;;;;;;;;;;;;;;23.10;51.76;101369.28;5136979;27;19978;-37
2022/09/11 03:57:13;;;;;;;;;;;;;;;23.09;51.79;101359.28;5140721;27;19946;-37
2022/09/11 03:59:38;;;;;;;;;;;;;;;23.10;51.78;101369.28;5141334;27;19923;-38
2022/09/11 04:02:04;;;;;;;;;;;;;;;23.09;51.80;101367.63;5139035;27;19924;-37
2022/09/11 04:04:29;;;;;;;;;;;;;;;23.09;51.71;101367.63;5142332;27;19984;-37
2022/09/11 04:06:55;;;;;;;;;;;;;;;23.09;51.74;101367.63;5142977;27;19924;-37
2022/09/11 04:09:21;;;;;;;;;;;;;;;23.09;51.70;101371.22;5141666;27;20326;-37
2022/09/11 04:11:46;;;;;;;;;;;;;;;23.08;51.84;101371.53;5136056;27;19931;-38
2022/09/11 04:14:12;;;;;;;;;;;;;;;23.09;51.78;101373.19;5138424;27;19924;-37
2022/09/11 04:16:37;;;;;;;;;;;;;;;23.09;51.71;101375.97;5139053;27;19930;-39
2022/09/11 04:19:03;;;;;;;;;;;;;;;23.09;51.72;101374.00;5140318;27;19930;-38
2022/09/11 04:21:28;;;;;;;;;;;;;;;23.08;51.61;101372.34;5120378;27;20304;-38
2022/09/11 04:23:58;;;;;;;;;;;;;;;23.08;51.74;101377.91;5123378;27;19931;-37
2022/09/11 04:26:25;;;;;;;;;;;;;;;23.08;51.70;101365.97;5135528;27;19992;-37
2022/09/11 04:28:50;;;;;;;;;;;;;;;23.08;51.77;101377.91;5139288;27;19981;-37
2022/09/11 04:31:17;;;;;;;;;;;;;;;23.09;51.72;101367.63;5138267;27;19924;-39
2022/09/11 04:33:42;;;;;;;;;;;;;;;23.09;51.81;101370.41;5123932;27;19923;-38
2022/09/11 04:36:09;;;;;;;;;;;;;;;23.10;51.82;101377.59;5135160;27;19932;-37
2022/09/11 04:38:35;;;;;;;;;;;;;;;23.09;51.84;101375.97;5114927;27;20418;-38
2022/09/11 04:41:01;;;;;;;;;;;;;;;23.08;51.71;101383.47;5138317;27;19962;-37
2022/09/11 04:43:27;;;;;;;;;;;;;;;23.09;51.74;101375.97;5145692;27;19978;-38
2022/09/11 04:45:58;;;;;;;;;;;;;;;23.07;51.79;101381.81;5134742;27;20373;-38
2022/09/11 04:48:24;;;;;;;;;;;;;;;23.08;51.69;101377.91;5119206;27;19923;-37
2022/09/11 04:50:56;;;;;;;;;;;;;;;23.09;51.58;101389.84;5139475;27;20061;-38
2022/09/11 04:53:22;;;;;;;;;;;;;;;23.07;51.67;101386.56;5119328;27;19969;-38
2022/09/11 04:55:49;;;;;;;;;;;;;;;23.08;51.68;101385.41;5141162;27;20537;-38
2022/09/11 04:58:14;;;;;;;;;;;;;;;23.08;51.58;101391.81;5137882;27;19959;-38
2022/09/11 05:00:40;;;;;;;;;;;;;;;23.08;51.76;101389.03;5137287;27;19932;-38
2022/09/11 05:03:05;;;;;;;;;;;;;;;23.07;51.71;101390.16;5139098;27;20277;-37
2022/09/11 05:05:31;;;;;;;;;;;;;;;23.08;51.77;101397.34;5140544;27;19927;-37
2022/09/11 05:07:57;;;;;;;;;;;;;;;23.07;51.78;101398.50;5137234;27;19931;-37
2022/09/11 05:10:22;;;;;;;;;;;;;;;23.07;51.65;101398.50;5138473;27;19924;-37
2022/09/11 05:12:50;;;;;;;;;;;;;;;23.08;51.72;101407.66;5136096;27;19924;-37
2022/09/11 05:15:15;;;;;;;;;;;;;;;23.07;51.77;101409.59;5136241;27;20013;-38
2022/09/11 05:17:41;;;;;;;;;;;;;;;23.07;51.70;101409.59;5134212;27;19927;-38
2022/09/11 05:20:06;;;;;;;;;;;;;;;23.07;51.74;101412.38;5132310;27;20358;-37
2022/09/11 05:22:37;;;;;;;;;;;;;;;23.07;51.78;101404.03;5140376;27;19980;-38
2022/09/11 05:25:03;;;;;;;;;;;;;;;23.07;51.77;101417.94;5136324;27;19931;-37
2022/09/11 05:27:28;;;;;;;;;;;;;;;23.07;51.67;101417.94;5144880;27;20029;-37
2022/09/11 05:29:54;;;;;;;;;;;;;;;23.07;51.73;101423.50;5140727;27;20299;-38
2022/09/11 05:32:19;;;;;;;;;;;;;;;23.07;51.82;101420.72;5133078;27;19976;-38
2022/09/11 05:34:45;;;;;;;;;;;;;;;23.06;51.79;101424.63;5135541;27;19934;-37
2022/09/11 05:37:11;;;;;;;;;;;;;;;23.06;51.79;101435.72;5138390;27;20360;-37
2022/09/11 05:39:36;;;;;;;;;;;;;;;23.06;52.00;101440.44;5132498;27;19986;-37
2022/09/11 05:42:03;;;;;;;;;;;;;;;23.06;51.75;101446.84;5138211;27;19924;-38
2022/09/11 05:44:29;;;;;;;;;;;;;;;23.06;51.85;101441.28;5143517;27;20380;-37
2022/09/11 05:46:55;;;;;;;;;;;;;;;23.06;51.63;101446.84;5136157;27;20018;-37
2022/09/11 05:49:21;;;;;;;;;;;;;;;23.07;51.82;101451.28;5134048;27;19957;-37
2022/09/11 05:51:46;;;;;;;;;;;;;;;23.07;51.95;101453.22;5145628;27;19976;-37
2022/09/11 05:54:12;;;;;;;;;;;;;;;23.07;51.77;101461.56;5138188;27;19930;-38
2022/09/11 05:56:38;;;;;;;;;;;;;;;23.06;51.70;101452.41;5138457;27;19950;-37
2022/09/11 05:59:07;;;;;;;;;;;;;;;23.07;51.74;101461.56;5135615;27;20010;-37
2022/09/11 06:01:32;;;;;;;;;;;;;;;23.08;51.75;101454.88;5138777;27;20025;-37
2022/09/11 06:03:58;;;;;;;;;;;;;;;23.07;51.82;101458.78;5134653;27;20334;-37
2022/09/11 06:06:23;;;;;;;;;;;;;;;23.06;51.79;101457.09;5139862;27;19931;-37
2022/09/11 06:08:50;;;;;;;;;;;;;;;23.07;51.80;101467.13;5136043;27;19924;-37
2022/09/11 06:11:16;;;;;;;;;;;;;;;23.07;51.64;101473.50;5119698;27;20051;-37
2022/09/11 06:13:42;;;;;;;;;;;;;;;23.06;51.77;101457.97;5135107;27;20028;-37
2022/09/11 06:16:09;;;;;;;;;;;;;;;23.06;51.78;101468.22;5136579;27;19977;-37
2022/09/11 06:18:34;;;;;;;;;;;;;;;23.05;51.73;101467.38;5138653;27;19981;-37
2022/09/11 06:21:01;;;;;;;;;;;;;;;23.06;51.86;101465.44;5133950;27;19931;-37
2022/09/11 06:23:26;;;;;;;;;;;;;;;23.07;51.60;101469.91;5135683;27;20014;-37
2022/09/11 06:25:53;;;;;;;;;;;;;;;23.06;51.69;101482.09;5118671;27;19924;-37
2022/09/11 06:28:20;;;;;;;;;;;;;;;23.06;51.83;101482.97;5139670;27;20014;-37
2022/09/11 06:30:47;;;;;;;;;;;;;;;23.05;51.82;101484.06;5136505;27;19966;-37
2022/09/11 06:33:12;;;;;;;;;;;;;;;23.04;51.83;101480.47;5137352;27;19983;-37
2022/09/11 06:35:38;;;;;;;;;;;;;;;23.05;51.72;101478.50;5140118;27;19931;-37
2022/09/11 06:38:04;;;;;;;;;;;;;;;23.05;51.71;101484.06;5135746;27;19924;-38
2022/09/11 06:40:29;;;;;;;;;;;;;;;23.06;51.72;101485.75;5137849;27;20397;-37
2022/09/11 06:42:57;;;;;;;;;;;;;;;23.05;51.83;101486.84;5134378;27;19954;-37
2022/09/11 06:45:23;;;;;;;;;;;;;;;23.04;51.71;101486.00;5141201;27;20014;-38
2022/09/11 06:47:49;;;;;;;;;;;;;;;23.04;51.57;101494.34;5138983;27;20014;-38
2022/09/11 06:50:14;;;;;;;;;;;;;;;23.06;51.80;101496.00;5139076;27;19924;-37
2022/09/11 06:52:41;;;;;;;;;;;;;;;23.06;51.57;101496.00;5137703;27;19936;-37
2022/09/11 06:55:12;;;;;;;;;;;;;;;23.05;51.86;101489.63;5138140;27;20085;-37
2022/09/11 06:57:39;;;;;;;;;;;;;;;23.04;51.75;101496.31;5142952;27;20014;-37
2022/09/11 07:00:08;;;;;;;;;;;;;;;23.04;51.73;101496.31;5138300;27;20044;-37
2022/09/11 07:02:34;;;;;;;;;;;;;;;23.05;51.75;101495.16;5141118;27;20083;-38
2022/09/11 07:04:59;;;;;;;;;;;;;;;23.04;51.70;101505.47;5142827;27;19927;-37
2022/09/11 07:07:25;;;;;;;;;;;;;;;23.04;51.64;101507.41;5140897;27;19938;-38
2022/09/11 07:09:50;;;;;;;;;;;;;;;23.06;51.83;101504.31;5141646;27;19923;-37
2022/09/11 07:12:16;;;;;;;;;;;;;;;23.04;51.84;101504.63;5140956;27;20316;-38
2022/09/11 07:14:41;;;;;;;;;;;;;;;23.04;51.70;101505.47;5145896;27;19942;-37
2022/09/11 07:17:07;;;;;;;;;;;;;;;23.05;51.65;101509.06;5135040;27;19930;-37
2022/09/11 07:19:32;;;;;;;;;;;;;;;23.04;51.59;101507.41;5140988;27;20292;-37
2022/09/11 07:21:58;;;;;;;;;;;;;;;23.04;51.71;101511.00;5140164;27;19933;-38
2022/09/11 07:24:23;;;;;;;;;;;;;;;23.04;51.84;101507.41;5138261;27;19923;-37
2022/09/11 07:26:49;;;;;;;;;;;;;;;23.04;51.63;101516.56;5137827;27;20272;-37
2022/09/11 07:29:15;;;;;;;;;;;;;;;23.04;51.58;101508.25;5140437;27;20353;-38
2022/09/11 07:31:41;;;;;;;;;;;;;;;23.06;51.79;101509.88;5140464;27;19927;-38
2022/09/11 07:34:07;;;;;;;;;;;;;;;23.04;51.72;101521.31;5140665;27;19973;-38
2022/09/11 07:36:36;;;;;;;;;;;;;;;23.04;51.75;101512.97;5141490;27;20018;-38
2022/09/11 07:39:02;;;;;;;;;;;;;;;23.04;51.78;101524.91;5142092;27;19962;-37
2022/09/11 07:41:28;;;;;;;;;;;;;;;23.05;51.74;101525.72;5142158;27;20025;-38
2022/09/11 07:43:54;;;;;;;;;;;;;;;23.04;51.79;101524.91;5125341;27;19981;-37
2022/09/11 07:46:20;;;;;;;;;;;;;;;23.03;51.80;101522.44;5115425;27;20334;-38
2022/09/11 07:48:46;;;;;;;;;;;;;;;23.03;51.71;101523.25;5120759;27;19923;-38
2022/09/11 07:51:12;;;;;;;;;;;;;;;23.03;51.65;101528.81;5138835;27;20018;-37
2022/09/11 07:53:39;;;;;;;;;;;;;;;23.03;51.83;101528.81;5145007;27;20026;-37
2022/09/11 07:56:05;;;;;;;;;;;;;;;23.04;51.64;101537.97;5137575;27;20010;-37
2022/09/11 07:58:32;;;;;;;;;;;;;;;23.04;51.72;101540.75;5122642;27;20062;-37
2022/09/11 08:00:58;;;;;;;;;;;;;;;23.04;51.72;101535.19;5142361;27;20495;-37
2022/09/11 08:03:24;;;;;;;;;;;;;;;23.03;51.83;101539.91;5139259;27;19927;-37
2022/09/11 08:05:49;;;;;;;;;;;;;;;23.03;51.70;101545.47;5140183;27;20476;-38
2022/09/11 08:08:15;;;;;;;;;;;;;;;23.04;51.72;101551.84;5138640;27;19924;-37
2022/09/11 08:10:41;;;;;;;;;;;;;;;23.03;51.75;101548.25;5136871;27;20297;-37
2022/09/11 08:13:07;;;;;;;;;;;;;;;23.03;51.83;101553.81;5136661;27;19963;-38
2022/09/11 08:15:34;;;;;;;;;;;;;;;23.03;51.76;101553.81;5138780;27;19973;-38
2022/09/11 08:18:00;;;;;;;;;;;;;;;23.02;51.78;101560.50;5139384;27;19935;-37
2022/09/11 08:20:25;;;;;;;;;;;;;;;23.03;51.62;101567.69;5141233;27;19930;-37
2022/09/11 08:22:51;;;;;;;;;;;;;;;23.03;51.84;101569.66;5139200;27;20479;-37
2022/09/11 08:25:17;;;;;;;;;;;;;;;23.03;51.98;101564.09;5140552;27;20024;-37
2022/09/11 08:27:42;;;;;;;;;;;;;;;23.02;51.85;101560.50;5136723;27;19931;-37
2022/09/11 08:30:08;;;;;;;;;;;;;;;23.02;51.80;101560.50;5139117;27;20381;-37
2022/09/11 08:32:34;;;;;;;;;;;;;;;23.05;51.74;101570.19;5135107;27;19988;-38
2022/09/11 08:34:59;;;;;;;;;;;;;;;23.03;51.71;101573.25;5134666;27;19934;-37
2022/09/11 08:37:25;;;;;;;;;;;;;;;23.03;51.57;101564.09;5136090;27;19930;-38
2022/09/11 08:39:50;;;;;;;;;;;;;;;23.03;51.60;101573.25;5137835;27;20269;-37
2022/09/11 08:42:16;;;;;;;;;;;;;;;23.02;51.78;101579.94;5136647;27;19923;-38
2022/09/11 08:44:44;;;;;;;;;;;;;;;23.02;51.63;101585.50;5141469;27;19923;-37
2022/09/11 08:47:13;;;;;;;;;;;;;;;23.02;51.71;101591.06;5113994;27;20002;-38
2022/09/11 08:49:40;;;;;;;;;;;;;;;23.03;51.80;101583.53;5121414;27;20367;-38
2022/09/11 08:52:07;;;;;;;;;;;;;;;23.02;51.88;101585.50;5137017;27;20013;-37
2022/09/11 08:54:35;;;;;;;;;;;;;;;23.02;51.85;101590.22;5121832;27;20021;-37
2022/09/11 08:57:04;;;;;;;;;;;;;;;23.03;51.73;101589.09;5140123;27;20397;-37
2022/09/11 08:59:42;;;;;;;;;;;;;;;23.02;51.76;101595.78;5137990;27;19959;-37
2022/09/11 09:02:18;;;;;;;;;;;;;;;23.01;51.73;101596.88;5132761;27;20025;-37
2022/09/11 09:05:04;;;;;;;;;;;;;;;23.01;51.88;101592.19;5136709;27;19929;-37
2022/09/11 09:07:34;;;;;;;;;;;;;;;23.02;51.73;101595.78;5121061;27;19924;-37
2022/09/11 09:10:03;;;;;;;;;;;;;;;23.01;51.90;101592.19;5140213;27;20024;-37
2022/09/11 09:12:35;;;;;;;;;;;;;;;23.02;51.65;101598.56;5142870;27;19981;-37
2022/09/11 09:15:20;;;;;;;;;;;;;;;23.01;51.81;101597.75;5140650;27;20014;-37
2022/09/11 09:17:58;;;;;;;;;;;;;;;23.01;51.82;101596.88;5120975;27;20006;-38
2022/09/11 09:20:26;;;;;;;;;;;;;;;23.01;51.88;101599.66;5138171;27;20006;-37
2022/09/11 09:22:53;;;;;;;;;;;;;;;23.02;51.77;101607.72;5137589;27;19985;-37
2022/09/11 09:25:21;;;;;;;;;;;;;;;23.01;51.83;101611.63;5137850;27;20330;-37
2022/09/11 09:27:47;;;;;;;;;;;;;;;23.02;51.86;101607.72;5135912;27;19970;-37
2022/09/11 09:30:22;;;;;;;;;;;;;;;23.02;51.73;101606.91;5140457;27;20022;-37
2022/09/11 09:32:52;;;;;;;;;;;;;;;23.02;51.73;101609.69;5136911;27;20015;-37
2022/09/11 09:35:20;;;;;;;;;;;;;;;23.01;51.56;101605.22;5139203;27;20009;-38
2022/09/11 09:37:45;;;;;;;;;;;;;;;23.01;51.74;101610.78;5135744;27;20058;-37
2022/09/11 09:40:13;;;;;;;;;;;;;;;23.02;51.78;101610.50;5137647;27;19927;-37
2022/09/11 09:42:42;;;;;;;;;;;;;;;23.00;51.91;101620.22;5140762;27;19927;-37
2022/09/11 09:45:18;;;;;;;;;;;;;;;23.01;51.70;101608.84;5137784;27;20022;-37
2022/09/11 09:47:43;;;;;;;;;;;;;;;23.02;51.88;101620.78;5122189;27;20018;-38
2022/09/11 09:50:14;;;;;;;;;;;;;;;23.01;51.81;101617.19;5135653;27;19986;-37
2022/09/11 09:52:40;;;;;;;;;;;;;;;23.02;51.88;101623.56;5134488;27;20014;-37
2022/09/11 09:55:10;;;;;;;;;;;;;;;23.01;51.76;101621.88;5138703;27;20320;-37
2022/09/11 09:57:36;;;;;;;;;;;;;;;23.01;51.85;101613.56;5137068;27;20034;-37
2022/09/11 10:00:06;;;;;;;;;;;;;;;23.01;51.90;101621.88;5142569;27;19975;-38
2022/09/11 10:05:24;;;;;;;;;;;;;;;23.01;51.75;101622.75;5180038;27;19925;-38
2022/09/11 10:07:50;;;;;;;;;;;;;;;23.01;51.89;101621.88;5145533;27;20014;-37
2022/09/11 10:10:20;;;;;;;;;;;;;;;23.01;51.85;101619.97;5162593;27;19975;-37
2022/09/11 10:12:46;;;;;;;;;;;;;;;23.00;51.67;101618.28;5159856;27;20029;-38
2022/09/11 10:15:17;;;;;;;;;;;;;;;23.01;51.85;101613.56;5149145;27;19930;-37
2022/09/11 10:17:42;;;;;;;;;;;;;;;23.00;51.70;101615.50;5142570;27;20017;-37
2022/09/11 10:20:12;;;;;;;;;;;;;;;23.00;51.82;101618.28;5163766;27;19968;-38
2022/09/11 10:22:38;;;;;;;;;;;;;;;23.00;51.78;101621.06;5164935;27;20676;-37
2022/09/11 10:25:09;;;;;;;;;;;;;;;23.00;51.76;101636.91;5163829;27;19938;-38
2022/09/11 10:27:38;;;;;;;;;;;;;;;23.00;51.83;101631.34;5161405;27;19999;-38
2022/09/11 10:30:04;;;;;;;;;;;;;;;23.00;51.76;101620.22;5163337;27;20010;-37
2022/09/11 10:32:30;;;;;;;;;;;;;;;22.99;51.82;101630.53;5167005;27;19923;-37
2022/09/11 10:34:55;;;;;;;;;;;;;;;23.00;51.70;101634.13;5146509;27;20019;-38
2022/09/11 10:37:23;;;;;;;;;;;;;;;23.00;51.77;101623.84;5161038;27;19930;-38
2022/09/11 10:39:49;;;;;;;;;;;;;;;22.99;51.67;101622.19;5161544;27;20401;-38
2022/09/11 10:42:16;;;;;;;;;;;;;;;22.99;51.87;101618.59;5160965;27;19938;-37
2022/09/11 10:44:42;;;;;;;;;;;;;;;22.99;51.84;101621.34;5167199;27;20018;-37
2022/09/11 10:47:16;;;;;;;;;;;;;;;23.00;51.67;101617.44;5158955;27;20014;-37
2022/09/11 10:49:42;;;;;;;;;;;;;;;22.99;51.79;101622.19;5135019;27;19977;-37
2022/09/11 10:52:10;;;;;;;;;;;;;;;23.00;51.73;101618.28;5161706;27;20278;-38
2022/09/11 10:54:57;;;;;;;;;;;;;;;23.00;51.77;101625.78;5164690;27;20017;-37
2022/09/11 10:57:42;;;;;;;;;;;;;;;23.00;51.85;101623.00;5143510;27;19959;-37
2022/09/11 11:00:13;;;;;;;;;;;;;;;23.00;51.78;101626.63;5155366;27;19965;-38
2022/09/11 11:02:40;;;;;;;;;;;;;;;23.00;51.80;101623.00;5154682;27;20357;-37
2022/09/11 11:05:07;;;;;;;;;;;;;;;22.99;51.72;101619.41;5162073;27;20018;-38
2022/09/11 11:07:41;;;;;;;;;;;;;;;23.00;51.83;101629.38;5162782;27;20022;-38
2022/09/11 11:10:16;;;;;;;;;;;;;;;23.01;51.68;101624.66;5155657;27;19967;-37
2022/09/11 11:12:46;;;;;;;;;;;;;;;22.98;51.77;101619.72;5157198;27;19974;-38
2022/09/11 11:18:00;;;;;;;;;;;;;;;22.99;51.73;101610.25;5168181;27;19929;-37
2022/09/11 11:20:30;;;;;;;;;;;;;;;22.99;51.76;101615.81;5163582;27;20355;-37
2022/09/11 11:23:17;;;;;;;;;;;;;;;23.00;51.61;101617.44;5167647;27;19983;-37
2022/09/11 11:25:46;;;;;;;;;;;;;;;22.98;51.76;101612.19;5152261;27;20002;-38
2022/09/11 11:28:17;;;;;;;;;;;;;;;22.99;51.70;101615.81;5167750;27;19978;-38
2022/09/11 11:30:47;;;;;;;;;;;;;;;22.98;51.86;101612.19;5166930;27;19973;-37
2022/09/11 11:33:34;;;;;;;;;;;;;;;22.99;51.75;101608.28;5167819;27;19930;-37
2022/09/11 11:36:04;;;;;;;;;;;;;;;22.98;51.60;101603.88;5151985;27;19970;-37
2022/09/11 11:38:35;;;;;;;;;;;;;;;22.99;51.83;101607.47;5166664;27;20066;-37
2022/09/11 11:41:21;;;;;;;;;;;;;;;22.99;51.85;101607.47;5165951;27;19997;-37
2022/09/11 11:43:47;;;;;;;;;;;;;;;22.99;51.74;101611.06;5141481;27;20018;-37
2022/09/11 11:46:21;;;;;;;;;;;;;;;22.99;51.79;101610.25;5142543;27;19965;-37
2022/09/11 11:48:50;;;;;;;;;;;;;;;22.99;51.76;101613.03;5128854;27;20068;-37
2022/09/11 11:51:17;;;;;;;;;;;;;;;22.97;51.71;101607.78;5148101;27;20428;-37
2022/09/11 11:54:02;;;;;;;;;;;;;;;22.99;51.84;101605.50;5147581;27;19969;-37
2022/09/11 11:56:32;;;;;;;;;;;;;;;22.99;51.60;101613.03;5131613;27;20481;-37
2022/09/11 11:59:17;;;;;;;;;;;;;;;22.99;51.68;101607.47;5146384;27;19970;-37
2022/09/11 12:01:47;;;;;;;;;;;;;;;22.98;51.66;101606.66;5129505;27;20189;-37
2022/09/11 12:04:32;;;;;;;;;;;;;;;22.98;51.76;101609.41;5126569;27;19931;-37
2022/09/11 12:06:58;;;;;;;;;;;;;;;22.99;51.71;101607.47;5129745;27;20016;-37
2022/09/11 12:09:23;;;;;;;;;;;;;;;22.99;51.77;101601.91;5145515;27;19927;-38
2022/09/11 12:11:50;;;;;;;;;;;;;;;22.99;51.76;101607.47;5145733;27;19931;-37
2022/09/11 12:14:32;;;;;;;;;;;;;;;22.98;51.81;101608.59;5146370;27;20018;-37
2022/09/11 12:17:14;;;;;;;;;;;;;;;22.99;51.77;101615.81;5127067;27;20014;-37
2022/09/11 12:19:56;;;;;;;;;;;;;;;22.99;51.77;101608.28;5126966;27;20002;-37
2022/09/11 12:22:31;;;;;;;;;;;;;;;22.97;51.64;101605.00;5146670;27;20014;-38
2022/09/11 12:24:57;;;;;;;;;;;;;;;22.99;51.79;101610.25;5127694;27;20018;-38
2022/09/11 12:30:08;;;;;;;;;;;;;;;22.99;51.55;101610.25;5181401;27;19930;-37
2022/09/11 12:32:42;;;;;;;;;;;;;;;22.98;51.69;101601.09;5152581;27;19958;-38
2022/09/11 12:35:18;;;;;;;;;;;;;;;22.98;51.75;101601.09;5159771;27;19980;-37
2022/09/11 12:37:43;;;;;;;;;;;;;;;22.97;51.79;101596.66;5169765;27;20034;-37
2022/09/11 12:40:19;;;;;;;;;;;;;;;22.96;51.77;101599.72;5175076;27;19967;-38
2022/09/11 12:42:44;;;;;;;;;;;;;;;22.99;51.78;101596.34;5172513;27;20440;-39
2022/09/11 12:45:28;;;;;;;;;;;;;;;22.98;51.70;101598.31;5154542;27;19930;-37
2022/09/11 12:47:53;;;;;;;;;;;;;;;22.97;51.68;101596.66;5154337;27;19937;-37
2022/09/11 12:50:20;;;;;;;;;;;;;;;22.98;51.65;101591.94;5166540;27;19927;-37